Time;durP1;ratioP1;P1;durP2;ratioP2;P2;SDS_P1;SDS_P2;PMS_P1;PMS_P2;Temp;Humidity;BMP_temperature;BMP_pressure;BME280_temperature;BME280_humidity;BME280_pressure;Samples;Min_cycle;Max_cycle;Signal;HPM_P1;HPM_P2
2021/04/13 00:01:14;;;;;;;9.65;6.55;;;;;;;9.36;69.13;99226.50;6306017;22;19995;-76
2021/04/13 00:03:45;;;;;;;7.90;5.97;;;;;;;9.31;69.08;99226.47;6279766;22;20003;-74
2021/04/13 00:06:14;;;;;;;11.18;6.88;;;;;;;9.28;69.44;99227.81;6307132;22;20389;-73
2021/04/13 00:08:40;;;;;;;10.60;6.82;;;;;;;9.24;69.04;99229.38;6307058;22;20003;-74
2021/04/13 00:11:09;;;;;;;7.22;6.13;;;;;;;9.20;69.42;99228.31;6306043;22;20041;-74
2021/04/13 00:13:38;;;;;;;9.32;6.18;;;;;;;9.16;69.49;99220.03;6305345;22;20000;-74
2021/04/13 00:16:21;;;;;;;10.00;6.88;;;;;;;9.06;69.19;99215.47;6305926;22;20030;-73
2021/04/13 00:18:49;;;;;;;11.23;6.35;;;;;;;9.02;69.61;99222.41;6305029;22;19999;-73
2021/04/13 00:21:22;;;;;;;9.98;7.28;;;;;;;8.97;69.49;99219.69;6305514;22;20002;-74
2021/04/13 00:23:49;;;;;;;9.63;6.85;;;;;;;8.96;69.00;99229.56;6305184;22;20003;-74
2021/04/13 00:26:22;;;;;;;9.95;7.13;;;;;;;8.92;69.42;99227.66;6305594;22;19995;-74
2021/04/13 00:28:49;;;;;;;13.80;7.40;;;;;;;8.89;69.40;99221.00;6305265;22;20394;-74
2021/04/13 00:31:42;;;;;;;9.75;6.65;;;;;;;8.85;68.94;99227.09;6266516;22;20043;-75
2021/04/13 00:34:23;;;;;;;10.35;7.55;;;;;;;8.78;69.01;99222.03;6274130;22;20063;-73
2021/04/13 00:36:51;;;;;;;9.02;6.47;;;;;;;8.74;69.17;99223.59;6274253;22;20017;-73
2021/04/13 00:39:24;;;;;;;9.77;6.87;;;;;;;8.70;69.62;99219.84;6274451;22;20026;-73
2021/04/13 00:41:54;;;;;;;11.60;7.97;;;;;;;8.68;70.02;99224.63;6274066;22;20030;-73
2021/04/13 00:44:21;;;;;;;10.43;7.50;;;;;;;8.63;69.60;99222.75;6274176;22;19999;-73
2021/04/13 00:46:49;;;;;;;13.70;8.60;;;;;;;8.60;69.74;99215.25;6274114;22;20035;-73
2021/04/13 00:49:17;;;;;;;10.93;8.38;;;;;;;8.58;70.44;99225.38;6274331;22;20000;-74
2021/04/13 00:51:53;;;;;;;11.15;8.15;;;;;;;8.55;70.50;99221.34;6274156;22;20010;-74
2021/04/13 00:54:32;;;;;;;15.55;8.32;;;;;;;8.55;70.46;99218.69;6274256;22;20007;-73
2021/04/13 00:57:03;;;;;;;10.98;7.57;;;;;;;8.52;70.03;99218.41;6274339;22;19996;-73
2021/04/13 00:59:30;;;;;;;12.68;7.78;;;;;;;8.52;69.69;99215.75;6273658;22;20022;-73
2021/04/13 01:02:02;;;;;;;11.18;7.60;;;;;;;8.56;70.19;99217.63;6274322;22;19999;-73
2021/04/13 01:04:32;;;;;;;12.93;8.27;;;;;;;8.59;70.55;99221.66;6273788;22;20000;-73
2021/04/13 01:07:07;;;;;;;11.18;8.20;;;;;;;8.59;69.93;99208.31;6274338;22;20054;-73
2021/04/13 01:09:32;;;;;;;10.07;7.13;;;;;;;8.60;69.98;99210.72;6273680;22;20395;-73
2021/04/13 01:11:59;;;;;;;9.30;7.65;;;;;;;8.65;69.71;99208.09;6273282;22;20030;-73
2021/04/13 01:14:31;;;;;;;11.68;7.57;;;;;;;8.70;69.44;99206.50;6246956;22;20449;-73
2021/04/13 01:17:00;;;;;;;14.40;8.57;;;;;;;8.72;70.02;99205.19;6273812;22;20031;-73
2021/04/13 01:19:50;;;;;;;12.80;8.60;;;;;;;8.76;69.64;99205.47;6274166;22;20004;-74
2021/04/13 01:23:01;;;;;;;11.02;7.82;;;;;;;8.81;69.56;99206.31;6273925;22;20075;-73
2021/04/13 01:25:27;;;;;;;10.90;7.82;;;;;;;8.80;69.08;99202.03;6272826;22;20004;-73
2021/04/13 01:28:07;;;;;;;13.60;9.27;;;;;;;8.84;68.81;99196.97;6273645;22;20007;-73
2021/04/13 01:30:38;;;;;;;14.55;9.00;;;;;;;8.86;68.90;99200.19;6248321;22;20372;-72
2021/04/13 01:36:20;;;;;;;13.57;8.77;;;;;;;8.89;68.46;99193.53;6179656;23;20005;-73
2021/04/13 01:38:59;;;;;;;14.02;9.13;;;;;;;8.90;68.39;99197.78;6287542;22;20002;-73
2021/04/13 01:41:43;;;;;;;13.95;8.68;;;;;;;8.89;68.36;99189.00;6277436;22;20006;-73
2021/04/13 01:44:11;;;;;;;13.93;8.48;;;;;;;8.88;67.85;99192.72;6303275;22;20592;-73
2021/04/13 01:46:37;;;;;;;15.13;8.70;;;;;;;8.88;67.80;99182.03;6304096;22;20435;-73
2021/04/13 01:49:03;;;;;;;14.20;8.77;;;;;;;8.91;67.81;99186.88;6304851;22;20547;-72
2021/04/13 01:51:33;;;;;;;14.43;10.15;;;;;;;8.93;67.65;99186.59;6304706;22;19995;-73
2021/04/13 01:53:59;;;;;;;12.90;8.85;;;;;;;8.92;67.88;99180.47;6304755;22;20109;-73
2021/04/13 01:56:53;;;;;;;16.35;9.10;;;;;;;8.95;67.26;99184.47;6304652;22;20371;-73
2021/04/13 01:59:23;;;;;;;15.23;9.95;;;;;;;8.92;67.17;99180.47;6301814;22;20275;-73
2021/04/13 02:01:57;;;;;;;12.27;8.85;;;;;;;8.93;67.33;99178.59;6276887;22;20136;-73
2021/04/13 02:04:31;;;;;;;13.88;9.02;;;;;;;8.91;67.49;99178.88;6304598;22;20010;-73
2021/04/13 02:07:03;;;;;;;14.32;8.90;;;;;;;8.91;67.26;99181.53;6304626;22;19995;-73
2021/04/13 02:12:21;;;;;;;14.57;9.32;;;;;;;8.84;67.89;99172.97;6304281;22;20007;-73
2021/04/13 02:14:52;;;;;;;16.38;9.77;;;;;;;8.81;67.77;99170.81;6304410;22;19999;-73
2021/04/13 02:17:36;;;;;;;16.85;10.57;;;;;;;8.79;67.87;99168.41;6304791;22;20486;-73
2021/04/13 02:20:05;;;;;;;14.23;9.63;;;;;;;8.71;67.38;99158.25;6305555;22;19999;-74
2021/04/13 02:22:30;;;;;;;14.88;9.75;;;;;;;8.72;67.29;99151.84;6306502;22;19999;-74
2021/04/13 02:25:01;;;;;;;16.95;9.85;;;;;;;8.68;67.68;99148.13;6305536;22;20006;-73
2021/04/13 02:27:30;;;;;;;18.17;10.70;;;;;;;8.67;67.34;99151.03;6304454;22;20054;-75
2021/04/13 02:30:12;;;;;;;13.68;9.98;;;;;;;8.64;67.38;99153.16;6304163;22;19999;-73
2021/04/13 02:32:43;;;;;;;15.85;9.88;;;;;;;8.56;67.26;99142.22;6303398;22;20007;-73
2021/04/13 02:35:30;;;;;;;17.20;10.80;;;;;;;8.54;67.38;99152.31;6305734;22;20074;-73
2021/04/13 02:38:02;;;;;;;17.25;10.65;;;;;;;8.46;67.21;99143.75;6306317;22;19999;-72
2021/04/13 02:40:38;;;;;;;11.98;8.98;;;;;;;8.44;67.44;99140.50;6306197;22;19995;-72
2021/04/13 02:43:15;;;;;;;17.35;9.73;;;;;;;8.44;67.45;99153.84;6305932;22;20006;-73
2021/04/13 02:45:52;;;;;;;14.95;10.10;;;;;;;8.42;67.72;99150.63;6278333;22;20420;-73
2021/04/13 02:48:22;;;;;;;14.38;10.18;;;;;;;8.43;68.07;99146.09;6306124;22;20006;-72
2021/04/13 02:50:49;;;;;;;15.35;10.57;;;;;;;8.41;68.06;99140.22;6306059;22;20000;-72
2021/04/13 02:53:21;;;;;;;16.05;11.32;;;;;;;8.42;68.15;99147.16;6305512;22;20428;-72
2021/04/13 02:55:56;;;;;;;15.10;9.73;;;;;;;8.39;67.70;99148.47;6305826;22;20374;-72
2021/04/13 02:58:26;;;;;;;14.80;11.38;;;;;;;8.38;67.78;99154.06;6306106;22;20072;-72
2021/04/13 03:00:54;;;;;;;18.35;10.57;;;;;;;8.28;67.89;99157.50;6305197;22;20412;-73
2021/04/13 03:03:27;;;;;;;15.75;11.13;;;;;;;8.26;67.67;99163.06;6306290;22;20041;-73
2021/04/13 03:05:55;;;;;;;15.05;10.35;;;;;;;8.24;67.62;99167.84;6305827;22;20006;-73
2021/04/13 03:08:21;;;;;;;15.65;10.70;;;;;;;8.26;68.01;99170.25;6305815;22;20417;-73
2021/04/13 03:10:54;;;;;;;17.60;9.85;;;;;;;8.22;67.70;99171.84;6305615;22;20033;-73
2021/04/13 03:13:23;;;;;;;11.82;9.50;;;;;;;8.26;68.20;99172.91;6304386;22;20010;-72
2021/04/13 03:15:59;;;;;;;19.02;10.43;;;;;;;8.14;67.96;99168.59;6305399;22;20006;-72
2021/04/13 03:18:29;;;;;;;15.15;10.75;;;;;;;8.07;68.09;99168.00;6305922;22;20010;-72
2021/04/13 03:21:02;;;;;;;19.05;11.98;;;;;;;8.02;68.94;99173.31;6305721;22;20002;-73
2021/04/13 03:23:30;;;;;;;20.95;12.43;;;;;;;7.97;68.43;99173.25;6305978;22;19995;-73
2021/04/13 03:26:04;;;;;;;23.45;12.10;;;;;;;7.91;68.77;99180.41;6305589;22;20003;-73
2021/04/13 03:28:44;;;;;;;21.00;12.15;;;;;;;7.88;68.33;99175.59;6305472;22;19999;-73
2021/04/13 03:31:13;;;;;;;19.50;12.68;;;;;;;7.87;68.80;99181.97;6305699;22;20007;-73
2021/04/13 03:33:40;;;;;;;21.27;13.30;;;;;;;7.86;68.93;99185.72;6305753;22;20406;-73
2021/04/13 03:36:16;;;;;;;16.45;10.98;;;;;;;7.86;68.79;99191.03;6305975;22;20003;-73
2021/04/13 03:38:43;;;;;;;17.17;11.27;;;;;;;7.84;69.55;99185.16;6305183;22;19999;-73
2021/04/13 03:41:19;;;;;;;22.60;13.17;;;;;;;7.81;68.91;99194.47;6305846;22;19999;-72
2021/04/13 03:43:49;;;;;;;20.20;12.77;;;;;;;7.82;69.50;99185.41;6305293;22;20301;-73
2021/04/13 03:46:15;;;;;;;19.75;12.45;;;;;;;7.84;68.79;99188.59;6303261;22;20002;-72
2021/04/13 03:48:48;;;;;;;19.67;13.70;;;;;;;7.90;69.06;99193.97;6305214;22;20006;-72
2021/04/13 03:51:24;;;;;;;21.40;14.02;;;;;;;7.95;69.02;99192.16;6305884;22;20324;-72
2021/04/13 03:53:49;;;;;;;25.50;15.55;;;;;;;8.06;69.04;99193.03;6304994;22;20316;-72
2021/04/13 03:56:18;;;;;;;26.58;16.17;;;;;;;8.19;68.75;99189.16;6305699;22;20075;-72
2021/04/13 03:58:50;;;;;;;21.63;13.05;;;;;;;8.38;68.13;99194.84;6305475;22;20061;-72
2021/04/13 04:01:20;;;;;;;19.80;13.18;;;;;;;8.52;67.37;99187.22;6305462;22;20056;-72
2021/04/13 04:04:04;;;;;;;20.08;12.07;;;;;;;8.70;67.08;99193.97;6305343;22;20007;-72
2021/04/13 04:06:36;;;;;;;20.52;13.32;;;;;;;8.88;66.30;99194.59;6305995;22;19995;-72
2021/04/13 04:09:12;;;;;;;22.58;13.32;;;;;;;9.04;65.97;99195.44;6303627;22;20432;-73
2021/04/13 04:11:37;;;;;;;24.00;14.40;;;;;;;9.24;65.17;99211.53;6277993;22;19999;-72
2021/04/13 04:14:03;;;;;;;26.38;14.48;;;;;;;9.45;64.87;99204.34;6305261;22;20032;-72
2021/04/13 04:16:28;;;;;;;20.50;13.18;;;;;;;9.67;63.81;99208.66;6277559;22;20066;-72
2021/04/13 04:18:55;;;;;;;22.95;13.65;;;;;;;9.91;63.63;99210.78;6305031;22;20039;-72
2021/04/13 04:21:36;;;;;;;19.75;13.45;;;;;;;10.16;62.34;99218.00;6304401;22;20003;-74
2021/04/13 04:24:06;;;;;;;19.35;12.95;;;;;;;10.45;61.74;99220.16;6304255;22;19999;-75
2021/04/13 04:26:40;;;;;;;20.80;13.40;;;;;;;10.72;61.02;99205.63;6304922;22;20023;-74
2021/04/13 04:29:21;;;;;;;19.30;12.80;;;;;;;11.11;60.23;99215.63;6304825;22;20105;-75
2021/04/13 04:31:47;;;;;;;22.27;13.65;;;;;;;11.41;59.17;99213.06;6302020;22;20104;-75
2021/04/13 04:34:15;;;;;;;20.50;12.10;;;;;;;11.71;57.27;99216.63;6304375;22;19999;-76
2021/04/13 04:36:50;;;;;;;15.40;11.07;;;;;;;11.86;56.73;99224.53;6303507;22;20019;-77
2021/04/13 04:39:23;;;;;;;15.73;10.85;;;;;;;12.01;56.43;99229.81;6277060;22;20011;-78
2021/04/13 04:41:50;;;;;;;15.38;11.02;;;;;;;12.12;56.07;99227.03;6276513;22;20009;-78
2021/04/13 04:44:25;;;;;;;13.50;10.93;;;;;;;12.22;55.21;99228.84;6277237;22;20030;-78
2021/04/13 04:46:54;;;;;;;16.08;11.65;;;;;;;12.35;55.12;99236.22;6302907;22;20010;-79
2021/04/13 04:49:19;;;;;;;15.38;10.38;;;;;;;12.58;55.17;99233.88;6277224;22;20365;-78
2021/04/13 04:51:51;;;;;;;18.70;12.43;;;;;;;12.81;54.68;99238.44;6276936;22;20097;-78
2021/04/13 04:54:16;;;;;;;14.10;11.45;;;;;;;12.97;53.85;99239.06;6277357;22;20117;-78
2021/04/13 04:56:42;;;;;;;15.40;11.77;;;;;;;13.15;53.55;99231.31;6302659;22;20000;-78
2021/04/13 04:59:08;;;;;;;21.33;12.40;;;;;;;13.38;53.35;99226.25;6277343;22;20289;-77
2021/04/13 05:01:34;;;;;;;17.88;12.23;;;;;;;13.60;52.94;99229.13;6277552;22;20033;-78
2021/04/13 05:03:59;;;;;;;17.27;10.63;;;;;;;13.88;52.22;99236.53;6302830;22;20384;-78
2021/04/13 05:06:26;;;;;;;22.30;11.68;;;;;;;14.07;52.03;99237.28;6277521;22;20386;-78
2021/04/13 05:08:52;;;;;;;17.63;11.45;;;;;;;14.22;51.77;99230.03;6304437;22;20374;-78
2021/04/13 05:11:17;;;;;;;16.50;11.52;;;;;;;14.46;50.92;99237.16;6277297;22;20107;-78
2021/04/13 05:13:43;;;;;;;22.05;12.60;;;;;;;14.63;50.46;99234.69;6303036;22;20405;-78
2021/04/13 05:16:09;;;;;;;18.25;11.65;;;;;;;14.82;50.24;99234.63;6277248;22;20007;-77
2021/04/13 05:18:34;;;;;;;16.42;11.77;;;;;;;14.94;49.64;99225.25;6303067;22;20026;-78
2021/04/13 05:21:00;;;;;;;18.55;12.32;;;;;;;14.99;49.24;99231.31;6302805;22;19999;-78
2021/04/13 05:23:26;;;;;;;16.10;11.90;;;;;;;15.07;48.86;99237.09;6277096;22;20003;-79
2021/04/13 05:25:51;;;;;;;20.25;13.55;;;;;;;15.02;48.90;99221.84;6276945;22;20328;-78
2021/04/13 05:28:18;;;;;;;19.38;12.18;;;;;;;14.99;49.21;99230.50;6277479;22;20060;-78
2021/04/13 05:30:44;;;;;;;15.38;11.75;;;;;;;14.97;49.32;99232.72;6276612;22;20033;-79
2021/04/13 05:33:10;;;;;;;16.98;11.90;;;;;;;14.89;48.88;99235.03;6302977;22;20003;-78
2021/04/13 05:35:36;;;;;;;23.60;12.40;;;;;;;14.93;49.20;99227.16;6303079;22;20003;-78
2021/04/13 05:38:09;;;;;;;18.65;12.57;;;;;;;14.97;49.08;99217.34;6277086;22;20360;-78
2021/04/13 05:40:37;;;;;;;20.48;11.68;;;;;;;15.01;49.13;99218.38;6303098;22;19995;-78
2021/04/13 05:43:03;;;;;;;16.25;11.95;;;;;;;15.08;48.90;99209.88;6303004;22;20496;-78
2021/04/13 05:45:33;;;;;;;15.95;12.02;;;;;;;15.13;48.54;99214.34;6303025;22;20034;-78
2021/04/13 05:47:59;;;;;;;19.80;12.13;;;;;;;15.13;48.35;99212.44;6276905;22;20137;-78
2021/04/13 05:50:38;;;;;;;16.77;12.80;;;;;;;15.09;48.33;99211.47;6302786;22;20006;-79
2021/04/13 05:53:03;;;;;;;;;;;;;;;14.98;48.22;99216.25;6277415;22;20196;-78
2021/04/13 05:55:30;;;;;;;16.50;10.52;;;;;;;14.89;48.83;99218.88;6277899;22;19899;-78
2021/04/13 05:58:00;;;;;;;13.25;10.38;;;;;;;14.83;49.52;99214.69;6278515;22;20015;-78
2021/04/13 06:00:27;;;;;;;14.48;10.38;;;;;;;14.72;49.35;99211.41;6277082;22;20007;-77
2021/04/13 06:02:54;;;;;;;12.70;10.25;;;;;;;14.66;49.69;99204.53;6302236;22;20006;-77
2021/04/13 06:05:23;;;;;;;15.43;10.18;;;;;;;14.51;50.69;99207.47;6304367;22;20018;-77
2021/04/13 06:07:49;;;;;;;15.07;11.02;;;;;;;14.36;50.95;99208.56;6302556;22;20113;-77
2021/04/13 06:10:15;;;;;;;14.52;10.95;;;;;;;14.23;51.14;99212.81;6304147;22;20027;-78
2021/04/13 06:12:41;;;;;;;14.90;10.93;;;;;;;14.07;51.83;99199.63;6304953;22;20003;-77
2021/04/13 06:15:09;;;;;;;15.02;11.25;;;;;;;13.90;52.29;99202.06;6304575;22;20029;-77
2021/04/13 06:17:34;;;;;;;18.10;10.73;;;;;;;13.88;53.11;99215.81;6278532;22;20403;-77
2021/04/13 06:19:59;;;;;;;17.27;11.60;;;;;;;13.83;53.14;99213.19;6278717;22;20022;-77
2021/04/13 06:22:25;;;;;;;16.27;10.82;;;;;;;13.81;53.98;99211.91;6304631;22;20003;-78
2021/04/13 06:24:51;;;;;;;12.77;10.35;;;;;;;13.68;53.13;99214.22;6304454;22;20003;-77
2021/04/13 06:27:17;;;;;;;10.95;9.52;;;;;;;13.60;53.63;99210.31;6279063;22;20010;-77
2021/04/13 06:29:42;;;;;;;15.07;11.27;;;;;;;13.61;53.80;99209.22;6278771;22;19999;-78
2021/04/13 06:32:09;;;;;;;15.43;10.35;;;;;;;13.60;54.08;99214.91;6303909;22;20008;-77
2021/04/13 06:34:34;;;;;;;16.52;10.30;;;;;;;13.59;54.17;99211.41;6304805;22;19999;-77
2021/04/13 06:37:06;;;;;;;16.38;10.52;;;;;;;13.66;54.14;99213.72;6304098;22;20002;-78
2021/04/13 06:39:33;;;;;;;17.58;9.95;;;;;;;13.68;53.81;99205.38;6304677;22;19999;-77
2021/04/13 06:42:04;;;;;;;14.50;10.20;;;;;;;13.77;53.82;99204.41;6278507;22;20007;-76
2021/04/13 06:44:54;;;;;;;15.27;10.40;;;;;;;13.80;53.60;99205.72;6304463;22;20003;-77
2021/04/13 06:47:42;;;;;;;12.70;9.75;;;;;;;13.81;53.70;99201.94;6304614;22;19999;-77
2021/04/13 06:50:38;;;;;;;11.55;9.10;;;;;;;13.86;53.13;99209.13;6278407;22;20454;-77
2021/04/13 06:53:17;;;;;;;12.90;9.07;;;;;;;13.91;53.46;99219.78;6304176;22;20078;-78
2021/04/13 06:55:46;;;;;;;14.55;9.13;;;;;;;13.98;53.48;99214.06;6303871;22;20082;-77
2021/04/13 06:58:30;;;;;;;;;;;;;;;14.07;53.83;99214.97;6279142;22;20034;-77
2021/04/13 07:01:15;;;;;;;13.10;7.80;;;;;;;14.09;53.21;99213.56;6304038;22;19899;-76
2021/04/13 07:04:06;;;;;;;13.98;8.05;;;;;;;14.09;53.48;99199.34;6277359;22;20003;-77
2021/04/13 07:06:38;;;;;;;10.65;7.85;;;;;;;14.08;53.29;99209.28;6278657;22;20003;-77
2021/04/13 07:09:14;;;;;;;13.25;10.80;;;;;;;14.06;54.11;99218.72;6277897;22;20406;-77
2021/04/13 07:11:47;;;;;;;10.32;8.27;;;;;;;14.09;54.14;99216.25;6278523;22;20090;-77
2021/04/13 07:14:34;;;;;;;14.43;9.93;;;;;;;14.10;54.27;99222.44;6278595;22;20011;-78
2021/04/13 07:17:04;;;;;;;13.60;10.10;;;;;;;14.14;53.78;99210.00;6304178;22;20014;-77
2021/04/13 07:19:33;;;;;;;16.27;9.73;;;;;;;14.19;54.15;99207.22;6304087;22;19995;-76
2021/04/13 07:22:27;;;;;;;11.20;7.78;;;;;;;14.28;54.16;99201.16;6303744;22;20359;-77
2021/04/13 07:24:58;;;;;;;10.40;7.95;;;;;;;14.38;53.48;99209.84;6278060;22;20003;-78
2021/04/13 07:27:57;;;;;;;10.75;8.15;;;;;;;14.42;53.76;99207.34;6278469;22;20031;-78
2021/04/13 07:30:44;;;;;;;10.85;8.50;;;;;;;14.54;53.61;99199.59;6304281;22;20007;-77
2021/04/13 07:33:20;;;;;;;13.68;8.63;;;;;;;14.69;53.06;99197.72;6278080;22;20014;-77
2021/04/13 07:35:47;;;;;;;12.30;7.97;;;;;;;14.78;52.62;99198.63;6278167;22;20003;-77
2021/04/13 07:38:23;;;;;;;17.88;10.07;;;;;;;14.84;52.57;99200.13;6278143;22;20056;-77
2021/04/13 07:40:53;;;;;;;16.17;9.35;;;;;;;14.93;52.32;99202.09;6303314;22;20050;-77
2021/04/13 07:43:53;;;;;;;19.27;7.68;;;;;;;14.94;52.21;99191.03;6303907;22;20086;-77
2021/04/13 07:46:51;;;;;;;11.02;7.93;;;;;;;14.97;52.61;99184.25;6287157;22;20082;-77
2021/04/13 07:49:34;;;;;;;;;;;;;;;14.98;52.52;99186.63;6228130;22;20010;-77
2021/04/13 07:52:18;;;;;;;10.15;8.25;;;;;;;14.92;52.43;99192.44;6278095;22;19903;-76
2021/04/13 07:54:56;;;;;;;9.10;7.85;;;;;;;14.95;52.40;99186.44;6278145;22;19999;-77
2021/04/13 07:57:28;;;;;;;11.60;7.85;;;;;;;14.94;52.26;99180.28;6304278;22;20033;-77
2021/04/13 07:59:59;;;;;;;11.13;7.32;;;;;;;14.98;52.15;99178.56;6303637;22;20031;-78
2021/04/13 08:02:25;;;;;;;9.52;7.45;;;;;;;15.02;52.12;99170.69;6305865;22;20449;-78
2021/04/13 08:04:51;;;;;;;9.95;7.10;;;;;;;15.13;51.98;99166.66;6303689;22;19999;-78
2021/04/13 08:07:20;;;;;;;10.70;7.85;;;;;;;15.29;52.09;99175.19;6278404;22;20072;-78
2021/04/13 08:09:54;;;;;;;;;;;;;;;15.46;51.38;99176.44;6278899;22;20027;-78
2021/04/13 08:12:30;;;;;;;11.00;8.40;;;;;;;15.48;51.18;99166.94;6304178;22;19972;-78
2021/04/13 08:14:56;;;;;;;14.45;8.95;;;;;;;15.52;50.73;99165.22;6303779;22;20007;-78
2021/04/13 08:17:25;;;;;;;14.85;9.07;;;;;;;15.57;50.53;99171.63;6278188;22;20295;-78
2021/04/13 08:20:10;;;;;;;13.50;8.68;;;;;;;15.64;50.43;99161.19;6303086;22;20003;-78
2021/04/13 08:22:56;;;;;;;10.27;8.50;;;;;;;15.66;50.25;99153.59;6303680;22;20010;-77
2021/04/13 08:25:32;;;;;;;10.48;8.32;;;;;;;15.64;50.60;99147.72;6303554;22;20003;-78
2021/04/13 08:28:24;;;;;;;10.23;7.55;;;;;;;15.76;51.17;99147.97;6303609;22;20026;-78
2021/04/13 08:32:50;;;;;;;8.48;7.53;;;;;;;15.78;50.59;99134.16;6236646;22;20053;-78
2021/04/13 08:34:15;;;;;;;9.88;7.32;;;;;;;15.91;50.49;99135.22;6304461;22;20008;-78
2021/04/13 08:37:25;;;;;;;9.65;7.65;;;;;;;16.05;50.67;99132.44;6305022;22;20328;-78
2021/04/13 08:40:10;;;;;;;9.20;7.20;;;;;;;16.11;50.10;99136.59;6248699;22;20003;-78
2021/04/13 08:42:46;;;;;;;11.07;8.45;;;;;;;16.22;49.81;99135.22;6278012;22;20091;-78
2021/04/13 08:45:27;;;;;;;9.23;7.68;;;;;;;16.29;49.61;99132.06;6303224;22;20093;-78
2021/04/13 08:48:11;;;;;;;7.95;7.15;;;;;;;16.39;49.66;99131.75;6252019;22;20102;-78
2021/04/13 08:50:37;;;;;;;11.45;7.00;;;;;;;16.51;49.53;99130.41;6277590;22;20363;-79
2021/04/13 08:53:08;;;;;;;8.85;7.95;;;;;;;16.59;49.57;99132.31;6277533;22;20005;-79
2021/04/13 08:55:36;;;;;;;11.20;7.60;;;;;;;16.63;49.01;99117.06;6277106;22;20026;-80
2021/04/13 08:58:05;;;;;;;7.25;6.03;;;;;;;16.68;49.01;99116.16;6277374;22;20083;-79
2021/04/13 09:00:39;;;;;;;7.28;6.03;;;;;;;16.73;48.68;99119.47;6277529;22;20336;-79
2021/04/13 09:03:10;;;;;;;9.85;7.05;;;;;;;16.77;48.45;99120.44;6277354;22;20007;-79
2021/04/13 09:05:39;;;;;;;10.55;7.47;;;;;;;16.81;48.79;99107.88;6277564;22;20071;-79
2021/04/13 09:08:26;;;;;;;9.68;6.93;;;;;;;16.82;48.45;99103.31;6277309;22;20026;-79
2021/04/13 09:11:11;;;;;;;9.80;7.53;;;;;;;16.80;49.55;99097.41;6277589;22;20006;-80
2021/04/13 09:13:39;;;;;;;8.02;5.38;;;;;;;16.87;48.75;99099.63;6303303;22;20558;-79
2021/04/13 09:16:10;;;;;;;;;;;;;;;16.96;48.31;99093.16;6303795;22;20332;-79
2021/04/13 09:18:45;;;;;;;6.28;5.68;;;;;;;17.03;48.04;99098.09;6303350;22;20295;-79
2021/04/13 09:21:43;;;;;;;8.98;5.82;;;;;;;17.15;47.73;99093.94;6277211;22;20007;-79
2021/04/13 09:24:14;;;;;;;8.68;6.30;;;;;;;17.17;47.07;99089.03;6277162;22;20364;-80
2021/04/13 09:27:01;;;;;;;8.07;6.13;;;;;;;17.19;47.14;99090.31;6303282;22;20363;-79
2021/04/13 09:29:39;;;;;;;6.25;5.63;;;;;;;17.14;46.46;99074.25;6277536;22;20006;-80
2021/04/13 09:32:09;;;;;;;8.88;5.55;;;;;;;17.05;47.55;99087.78;6302536;22;20308;-79
2021/04/13 09:34:57;;;;;;;7.53;5.40;;;;;;;17.09;48.35;99082.53;6277445;22;20456;-79
2021/04/13 09:37:54;;;;;;;6.03;4.93;;;;;;;17.10;47.62;99078.69;6277268;22;20403;-79
2021/04/13 09:40:57;;;;;;;7.47;5.03;;;;;;;17.10;47.53;99078.69;6277068;22;20007;-79
2021/04/13 09:43:30;;;;;;;7.97;5.10;;;;;;;17.11;48.02;99067.59;6277932;22;20062;-79
2021/04/13 09:46:17;;;;;;;9.32;6.07;;;;;;;17.20;47.40;99069.47;6279179;22;20491;-79
2021/04/13 09:48:58;;;;;;;10.15;5.93;;;;;;;17.27;47.47;99061.66;6305289;22;20340;-79
2021/04/13 09:51:23;;;;;;;9.02;5.70;;;;;;;17.34;47.69;99059.28;6305335;22;20049;-79
2021/04/13 09:54:31;;;;;;;8.77;5.65;;;;;;;17.40;47.17;99055.28;6279420;22;20305;-80
2021/04/13 09:57:21;;;;;;;7.03;5.28;;;;;;;17.48;46.85;99053.69;6266342;22;20003;-80
2021/04/13 09:59:55;;;;;;;11.38;7.20;;;;;;;17.51;46.93;99052.25;6279213;22;20331;-80
2021/04/13 10:02:43;;;;;;;7.95;5.38;;;;;;;17.62;46.49;99055.41;6304733;22;19999;-79
2021/04/13 10:05:13;;;;;;;8.40;6.30;;;;;;;17.71;46.29;99046.16;6278869;22;20007;-79
2021/04/13 10:08:02;;;;;;;6.28;5.60;;;;;;;17.74;45.93;99048.19;6279217;22;20450;-79
2021/04/13 10:10:53;;;;;;;14.27;6.93;;;;;;;17.76;46.72;99051.38;6305104;22;20451;-79
2021/04/13 10:13:40;;;;;;;9.00;6.35;;;;;;;17.75;46.26;99052.50;6278906;22;20007;-79
2021/04/13 10:16:26;;;;;;;13.60;9.90;;;;;;;17.67;46.60;99037.09;6279178;22;20436;-79
2021/04/13 10:19:16;;;;;;;11.25;6.78;;;;;;;17.60;47.10;99040.31;6305029;22;20781;-81
2021/04/13 10:22:06;;;;;;;8.45;6.93;;;;;;;17.56;47.39;99033.16;6279140;22;20451;-79
2021/04/13 10:25:01;;;;;;;8.15;7.10;;;;;;;17.56;47.18;99030.44;6304805;22;20077;-78
2021/04/13 10:28:15;;;;;;;9.40;6.60;;;;;;;17.49;47.02;99024.75;6304642;22;20040;-78
2021/04/13 10:30:59;;;;;;;8.40;6.65;;;;;;;17.40;47.16;99027.47;6295593;22;20474;-78
2021/04/13 10:33:49;;;;;;;10.02;7.18;;;;;;;17.35;47.35;99033.84;6304924;22;20038;-79
2021/04/13 10:36:45;;;;;;;9.55;6.50;;;;;;;17.24;47.08;99019.88;6278608;22;20495;-79
2021/04/13 10:39:20;;;;;;;10.93;7.78;;;;;;;17.16;47.36;99015.25;6278818;22;20073;-80
2021/04/13 10:42:04;;;;;;;9.25;7.22;;;;;;;17.11;47.28;99020.84;6304831;22;20003;-80
2021/04/13 10:44:54;;;;;;;11.27;8.48;;;;;;;17.07;47.95;99015.28;6304679;22;19999;-79
2021/04/13 10:47:58;;;;;;;17.77;11.52;;;;;;;16.93;48.38;99020.06;6278653;22;19999;-80
2021/04/13 10:50:57;;;;;;;19.40;12.35;;;;;;;16.84;49.15;99020.03;6304720;22;20056;-80
2021/04/13 10:54:07;;;;;;;19.98;11.75;;;;;;;16.68;49.44;99014.31;6304695;22;20014;-79
2021/04/13 10:57:23;;;;;;;17.58;11.90;;;;;;;16.61;49.63;99012.09;6240801;23;20000;-79
2021/04/13 11:00:12;;;;;;;17.60;10.40;;;;;;;16.55;49.68;99013.38;6216073;23;20449;-80
2021/04/13 11:03:16;;;;;;;14.27;10.32;;;;;;;16.56;49.31;99012.25;6262181;22;19999;-78
2021/04/13 11:06:00;;;;;;;14.88;11.07;;;;;;;16.55;49.38;99007.16;6278733;22;19999;-77
2021/04/13 11:08:41;;;;;;;17.50;10.30;;;;;;;16.55;50.02;99007.16;6304589;22;20026;-78
2021/04/13 11:11:48;;;;;;;10.65;8.75;;;;;;;16.54;49.77;99008.28;6278265;22;20007;-78
2021/04/13 11:14:41;;;;;;;15.30;9.33;;;;;;;16.56;49.36;99008.75;6196316;22;20060;-79
2021/04/13 11:17:40;;;;;;;10.27;7.72;;;;;;;16.58;49.30;99007.31;6277965;22;19999;-78
2021/04/13 11:20:39;;;;;;;10.20;7.95;;;;;;;16.57;49.23;99011.13;6304095;22;20007;-80
2021/04/13 11:24:02;;;;;;;12.65;9.25;;;;;;;16.64;49.00;99010.69;6303938;22;20007;-80
2021/04/13 11:27:01;;;;;;;12.77;7.45;;;;;;;16.64;49.21;99008.75;6185565;23;20012;-79
2021/04/13 11:29:49;;;;;;;13.93;8.20;;;;;;;16.62;49.42;98999.38;6185486;23;20055;-80
2021/04/13 11:32:33;;;;;;;;;;;;;;;16.72;49.40;99012.59;6300988;22;20011;-79
2021/04/13 11:35:08;;;;;;;11.25;8.57;;;;;;;16.74;49.38;99015.75;6304164;22;19903;-80
2021/04/13 11:38:00;;;;;;;11.38;8.35;;;;;;;16.79;49.40;99010.19;6278323;22;20003;-79
2021/04/13 11:40:59;;;;;;;11.57;7.05;;;;;;;16.84;49.69;99008.44;6305951;22;20008;-80
2021/04/13 11:43:25;;;;;;;11.27;6.97;;;;;;;16.83;49.45;99010.34;6278256;22;20083;-78
2021/04/13 11:46:06;;;;;;;8.95;6.65;;;;;;;16.83;50.75;99007.63;6278290;22;20007;-79
2021/04/13 11:48:34;;;;;;;9.50;7.18;;;;;;;16.85;50.77;99002.72;6304054;22;20136;-77
2021/04/13 11:51:08;;;;;;;;;;;;;;;16.85;50.90;99007.34;6278650;22;20439;-78
2021/04/13 11:53:39;;;;;;;7.25;5.53;;;;;;;16.80;50.68;99000.19;6277592;22;20327;-78
2021/04/13 11:56:28;;;;;;;6.10;5.38;;;;;;;16.80;50.88;98995.56;6277691;22;20003;-78
2021/04/13 11:59:12;;;;;;;7.75;5.85;;;;;;;16.82;51.76;98997.97;6263050;22;20007;-78
2021/04/13 12:01:40;;;;;;;6.15;5.55;;;;;;;16.83;51.85;98988.72;6278017;22;20449;-78
2021/04/13 12:04:11;;;;;;;11.50;6.82;;;;;;;16.84;52.04;98992.25;6303256;22;19999;-78
2021/04/13 12:06:54;;;;;;;8.77;6.32;;;;;;;16.85;51.59;98989.22;6278025;22;20090;-80
2021/04/13 12:09:46;;;;;;;6.95;6.00;;;;;;;16.84;52.59;98984.13;6303686;22;19999;-79
2021/04/13 12:12:33;;;;;;;9.00;7.43;;;;;;;16.79;53.00;98977.78;6277828;22;19995;-79
2021/04/13 12:15:01;;;;;;;7.68;6.32;;;;;;;16.75;53.85;98973.34;6278146;22;20052;-79
2021/04/13 12:17:36;;;;;;;16.50;9.60;;;;;;;16.72;53.99;98977.47;6277661;22;19999;-79